N151ND KBYY-KODO
Flight info
| Callsign | N151ND |
|---|---|
| Flight time | 1h 28m |
| Altitude | 22000 |
| Route | SEEDS T466 MARCS J15 LOWGO |
| Aircraft | B350/L-SBDFGRYZ/LB1 |
Departure
| Time | 2026-04-13 21:39 |
|---|---|
| Airport | Bay City Regional Airport (KBYY) |
Arrival
| Time | 2026-04-13 23:07 |
|---|---|
| Airport | Odessa Schlemeyer Field (KODO) |
| Time | Latitude | Longitude | Altitude | Speed | Heading |
|---|---|---|---|---|---|
| 2026-04-13 21:15 | 28.97323 | -95.86150 | 47 ft | 0 kts | 216° |
| 2026-04-13 21:33 | 28.97322 | -95.86151 | 56 ft | 1 kts | 217° |
| 2026-04-13 21:34 | 28.97299 | -95.86220 | 47 ft | 7 kts | 314° |
| 2026-04-13 21:34 | 28.97323 | -95.86249 | 47 ft | 8 kts | 314° |
| 2026-04-13 21:34 | 28.97395 | -95.86335 | 47 ft | 13 kts | 314° |
| 2026-04-13 21:34 | 28.97458 | -95.86409 | 47 ft | 13 kts | 313° |
| 2026-04-13 21:35 | 28.97499 | -95.86459 | 47 ft | 13 kts | 314° |
| 2026-04-13 21:35 | 28.97584 | -95.86562 | 48 ft | 13 kts | 313° |
| 2026-04-13 21:35 | 28.97713 | -95.86715 | 49 ft | 13 kts | 314° |
| 2026-04-13 21:36 | 28.97766 | -95.86779 | 49 ft | 10 kts | 313° |
| 2026-04-13 21:36 | 28.97818 | -95.86842 | 50 ft | 11 kts | 315° |
| 2026-04-13 21:36 | 28.97833 | -95.86889 | 50 ft | 5 kts | 244° |
| 2026-04-13 21:36 | 28.97816 | -95.86908 | 51 ft | 5 kts | 220° |
| 2026-04-13 21:37 | 28.97801 | -95.86913 | 51 ft | 0 kts | 134° |
| 2026-04-13 21:38 | 28.97601 | -95.86675 | 49 ft | 79 kts | 134° |
| 2026-04-13 21:38 | 28.97285 | -95.86301 | 50 ft | 116 kts | 135° |
| 2026-04-13 21:39 | 28.96443 | -95.85299 | 525 ft | 142 kts | 135° |
| 2026-04-13 21:39 | 28.95746 | -95.84439 | 1004 ft | 153 kts | 135° |
| 2026-04-13 21:39 | 28.95078 | -95.83446 | 1491 ft | 161 kts | 130° |
| 2026-04-13 21:39 | 28.94633 | -95.82756 | 1875 ft | 160 kts | 130° |
| 2026-04-13 21:40 | 28.94250 | -95.81579 | 2389 ft | 173 kts | 88° |
| 2026-04-13 21:40 | 28.95376 | -95.80089 | 2719 ft | 216 kts | 21° |
| 2026-04-13 21:40 | 28.96921 | -95.80097 | 2804 ft | 236 kts | 338° |
| 2026-04-13 21:40 | 28.98207 | -95.81227 | 2859 ft | 237 kts | 306° |
| 2026-04-13 21:41 | 28.99211 | -95.82755 | 2885 ft | 244 kts | 302° |
| 2026-04-13 21:41 | 29.00187 | -95.84371 | 2890 ft | 250 kts | 301° |
| 2026-04-13 21:41 | 29.00833 | -95.85470 | 2885 ft | 253 kts | 300° |
| 2026-04-13 21:41 | 29.01803 | -95.87142 | 2986 ft | 251 kts | 299° |
| 2026-04-13 21:42 | 29.03106 | -95.89402 | 3147 ft | 258 kts | 299° |
| 2026-04-13 21:42 | 29.04088 | -95.91103 | 3266 ft | 261 kts | 300° |
| 2026-04-13 21:42 | 29.04765 | -95.92276 | 3352 ft | 263 kts | 300° |
| 2026-04-13 21:42 | 29.06113 | -95.94616 | 3396 ft | 270 kts | 300° |
| 2026-04-13 21:43 | 29.07158 | -95.96416 | 3405 ft | 274 kts | 300° |
| 2026-04-13 21:43 | 29.08217 | -95.98246 | 3399 ft | 277 kts | 300° |
| 2026-04-13 21:43 | 29.08932 | -95.99492 | 3382 ft | 278 kts | 300° |
| 2026-04-13 21:43 | 29.10329 | -96.01937 | 3377 ft | 277 kts | 300° |
| 2026-04-13 21:44 | 29.11384 | -96.03783 | 3399 ft | 277 kts | 299° |
| 2026-04-13 21:44 | 29.12433 | -96.05636 | 3417 ft | 278 kts | 299° |
| 2026-04-13 21:44 | 29.13476 | -96.07499 | 3412 ft | 278 kts | 299° |
| 2026-04-13 21:44 | 29.14478 | -96.09288 | 3991 ft | 256 kts | 299° |
| 2026-04-13 21:45 | 29.15367 | -96.10969 | 4616 ft | 238 kts | 292° |
| 2026-04-13 21:45 | 29.16041 | -96.12641 | 5214 ft | 226 kts | 291° |
| 2026-04-13 21:45 | 29.16730 | -96.14212 | 5807 ft | 216 kts | 292° |
| 2026-04-13 21:45 | 29.17187 | -96.15210 | 6211 ft | 211 kts | 294° |
| 2026-04-13 21:46 | 29.18082 | -96.17148 | 7002 ft | 201 kts | 294° |
| 2026-04-13 21:46 | 29.18508 | -96.18076 | 7388 ft | 197 kts | 293° |
| 2026-04-13 21:46 | 29.19336 | -96.19891 | 8158 ft | 194 kts | 292° |
| 2026-04-13 21:46 | 29.19955 | -96.21269 | 8681 ft | 194 kts | 292° |
| 2026-04-13 21:47 | 29.20373 | -96.22192 | 9064 ft | 193 kts | 292° |
| 2026-04-13 21:47 | 29.21193 | -96.24007 | 9795 ft | 193 kts | 293° |
| 2026-04-13 21:47 | 29.21600 | -96.24915 | 10146 ft | 193 kts | 292° |
| 2026-04-13 21:47 | 29.22212 | -96.26285 | 10625 ft | 194 kts | 293° |
| 2026-04-13 21:48 | 29.22833 | -96.27668 | 11107 ft | 195 kts | 293° |
| 2026-04-13 21:48 | 29.23457 | -96.29056 | 11585 ft | 197 kts | 294° |
| 2026-04-13 21:48 | 29.24083 | -96.30457 | 12069 ft | 198 kts | 294° |
| 2026-04-13 21:48 | 29.24719 | -96.31874 | 12549 ft | 200 kts | 294° |
| 2026-04-13 21:49 | 29.25356 | -96.33298 | 13043 ft | 202 kts | 295° |
| 2026-04-13 21:49 | 29.25996 | -96.34733 | 13567 ft | 203 kts | 295° |
| 2026-04-13 21:49 | 29.26633 | -96.36164 | 14040 ft | 204 kts | 295° |
| 2026-04-13 21:49 | 29.27279 | -96.37617 | 14482 ft | 205 kts | 294° |
| 2026-04-13 21:50 | 29.27929 | -96.39080 | 14920 ft | 206 kts | 294° |
| 2026-04-13 21:50 | 29.28582 | -96.40547 | 15363 ft | 207 kts | 294° |
| 2026-04-13 21:50 | 29.29239 | -96.42015 | 15788 ft | 208 kts | 294° |
| 2026-04-13 21:50 | 29.29901 | -96.43494 | 16253 ft | 208 kts | 294° |
| 2026-04-13 21:51 | 29.30562 | -96.44973 | 16704 ft | 208 kts | 294° |
| 2026-04-13 21:51 | 29.31222 | -96.46450 | 17106 ft | 211 kts | 293° |
| 2026-04-13 21:51 | 29.31889 | -96.47957 | 17520 ft | 213 kts | 294° |
| 2026-04-13 21:51 | 29.32565 | -96.49477 | 17931 ft | 214 kts | 294° |
| 2026-04-13 21:52 | 29.33246 | -96.51002 | 18351 ft | 215 kts | 294° |
| 2026-04-13 21:52 | 29.33928 | -96.52535 | 18692 ft | 216 kts | 294° |
| 2026-04-13 21:52 | 29.34615 | -96.54077 | 19047 ft | 217 kts | 293° |
| 2026-04-13 21:52 | 29.35303 | -96.55621 | 19402 ft | 218 kts | 294° |
| 2026-04-13 21:53 | 29.35994 | -96.57174 | 19738 ft | 219 kts | 293° |
| 2026-04-13 21:53 | 29.36685 | -96.58730 | 20081 ft | 220 kts | 293° |
| 2026-04-13 21:53 | 29.37379 | -96.60292 | 20427 ft | 221 kts | 293° |
| 2026-04-13 21:53 | 29.38078 | -96.61866 | 20783 ft | 221 kts | 293° |
| 2026-04-13 21:54 | 29.38771 | -96.63425 | 21117 ft | 223 kts | 293° |
| 2026-04-13 21:54 | 29.39250 | -96.64504 | 21299 ft | 225 kts | 293° |
| 2026-04-13 21:54 | 29.40204 | -96.66653 | 21621 ft | 231 kts | 293° |
| 2026-04-13 21:54 | 29.40940 | -96.68314 | 21833 ft | 236 kts | 293° |
| 2026-04-13 21:55 | 29.41696 | -96.70023 | 21953 ft | 244 kts | 293° |
| 2026-04-13 21:55 | 29.42477 | -96.71785 | 22001 ft | 252 kts | 294° |
| 2026-04-13 21:55 | 29.43288 | -96.73611 | 22011 ft | 261 kts | 294° |
| 2026-04-13 21:55 | 29.44123 | -96.75491 | 22016 ft | 268 kts | 294° |
| 2026-04-13 21:56 | 29.44978 | -96.77416 | 22023 ft | 273 kts | 294° |
| 2026-04-13 21:56 | 29.45849 | -96.79378 | 22022 ft | 277 kts | 294° |
| 2026-04-13 21:56 | 29.46730 | -96.81367 | 22014 ft | 281 kts | 294° |
| 2026-04-13 21:56 | 29.47620 | -96.83377 | 22023 ft | 284 kts | 294° |
| 2026-04-13 21:57 | 29.48505 | -96.85380 | 22023 ft | 286 kts | 294° |
| 2026-04-13 21:57 | 29.49406 | -96.87422 | 22018 ft | 288 kts | 294° |
| 2026-04-13 21:57 | 29.50310 | -96.89474 | 22029 ft | 289 kts | 294° |
| 2026-04-13 21:57 | 29.51218 | -96.91535 | 22024 ft | 290 kts | 294° |
| 2026-04-13 21:58 | 29.52131 | -96.93607 | 22031 ft | 291 kts | 294° |
| 2026-04-13 21:58 | 29.53044 | -96.95682 | 22028 ft | 291 kts | 294° |
| 2026-04-13 21:58 | 29.53959 | -96.97761 | 22037 ft | 291 kts | 294° |
| 2026-04-13 21:58 | 29.54872 | -96.99839 | 22035 ft | 292 kts | 294° |
| 2026-04-13 21:59 | 29.55787 | -97.01923 | 22036 ft | 292 kts | 293° |
| 2026-04-13 21:59 | 29.56703 | -97.04012 | 22040 ft | 292 kts | 293° |
| 2026-04-13 21:59 | 29.57609 | -97.06074 | 22041 ft | 292 kts | 293° |
| 2026-04-13 21:59 | 29.58525 | -97.08163 | 22040 ft | 293 kts | 293° |
| 2026-04-13 22:00 | 29.59440 | -97.10249 | 22041 ft | 293 kts | 293° |
| 2026-04-13 22:00 | 29.60357 | -97.12339 | 22039 ft | 293 kts | 293° |
| 2026-04-13 22:00 | 29.61274 | -97.14432 | 22041 ft | 292 kts | 293° |
| 2026-04-13 22:00 | 29.62190 | -97.16522 | 22035 ft | 292 kts | 293° |
| 2026-04-13 22:01 | 29.63104 | -97.18612 | 22043 ft | 292 kts | 293° |
| 2026-04-13 22:01 | 29.64019 | -97.20703 | 22055 ft | 292 kts | 293° |
| 2026-04-13 22:01 | 29.64930 | -97.22790 | 22046 ft | 293 kts | 293° |
| 2026-04-13 22:01 | 29.65846 | -97.24885 | 22050 ft | 293 kts | 293° |
| 2026-04-13 22:02 | 29.66740 | -97.26988 | 22049 ft | 292 kts | 291° |
| 2026-04-13 22:02 | 29.67570 | -97.29087 | 22051 ft | 292 kts | 290° |
| 2026-04-13 22:02 | 29.68395 | -97.31224 | 22047 ft | 292 kts | 290° |
| 2026-04-13 22:02 | 29.69217 | -97.33359 | 22051 ft | 292 kts | 290° |
| 2026-04-13 22:03 | 29.70041 | -97.35492 | 22050 ft | 292 kts | 290° |
| 2026-04-13 22:03 | 29.70873 | -97.37631 | 22052 ft | 292 kts | 290° |
| 2026-04-13 22:03 | 29.71705 | -97.39765 | 22053 ft | 293 kts | 290° |
| 2026-04-13 22:03 | 29.72540 | -97.41902 | 22049 ft | 293 kts | 290° |
| 2026-04-13 22:04 | 29.73376 | -97.44039 | 22051 ft | 292 kts | 290° |
| 2026-04-13 22:04 | 29.74206 | -97.46180 | 22048 ft | 292 kts | 290° |
| 2026-04-13 22:04 | 29.75036 | -97.48315 | 22047 ft | 292 kts | 290° |
| 2026-04-13 22:04 | 29.75872 | -97.50449 | 22049 ft | 293 kts | 290° |
| 2026-04-13 22:05 | 29.76710 | -97.52584 | 22046 ft | 292 kts | 290° |
| 2026-04-13 22:05 | 29.77547 | -97.54719 | 22045 ft | 292 kts | 290° |
| 2026-04-13 22:05 | 29.78374 | -97.56830 | 22046 ft | 292 kts | 290° |
| 2026-04-13 22:05 | 29.79211 | -97.58971 | 22045 ft | 293 kts | 290° |
| 2026-04-13 22:06 | 29.80047 | -97.61108 | 22046 ft | 292 kts | 290° |
| 2026-04-13 22:06 | 29.80881 | -97.63250 | 22050 ft | 293 kts | 290° |
| 2026-04-13 22:06 | 29.81714 | -97.65387 | 22052 ft | 293 kts | 290° |
| 2026-04-13 22:06 | 29.82548 | -97.67529 | 22048 ft | 293 kts | 290° |
| 2026-04-13 22:07 | 29.83383 | -97.69674 | 22050 ft | 293 kts | 290° |
| 2026-04-13 22:07 | 29.84206 | -97.71789 | 22052 ft | 293 kts | 290° |
| 2026-04-13 22:07 | 29.85040 | -97.73934 | 22054 ft | 293 kts | 290° |
| 2026-04-13 22:07 | 29.85874 | -97.76078 | 22053 ft | 293 kts | 290° |
| 2026-04-13 22:08 | 29.86709 | -97.78228 | 22051 ft | 293 kts | 290° |
| 2026-04-13 22:08 | 29.87543 | -97.80376 | 22058 ft | 293 kts | 290° |
| 2026-04-13 22:08 | 29.88093 | -97.81795 | 22056 ft | 293 kts | 290° |
| 2026-04-13 22:08 | 29.89196 | -97.84640 | 22057 ft | 293 kts | 290° |
| 2026-04-13 22:09 | 29.90031 | -97.86789 | 22055 ft | 293 kts | 289° |
| 2026-04-13 22:09 | 29.90842 | -97.88942 | 22058 ft | 292 kts | 288° |
| 2026-04-13 22:09 | 29.91634 | -97.91104 | 22056 ft | 292 kts | 288° |
| 2026-04-13 22:09 | 29.92419 | -97.93264 | 22057 ft | 292 kts | 288° |
| 2026-04-13 22:10 | 29.93205 | -97.95428 | 22058 ft | 292 kts | 288° |
| 2026-04-13 22:10 | 29.93994 | -97.97595 | 22056 ft | 293 kts | 288° |
| 2026-04-13 22:10 | 29.94782 | -97.99755 | 22055 ft | 292 kts | 288° |
| 2026-04-13 22:10 | 29.95564 | -98.01893 | 22053 ft | 292 kts | 288° |
| 2026-04-13 22:11 | 29.96353 | -98.04054 | 22054 ft | 292 kts | 288° |
| 2026-04-13 22:11 | 29.97141 | -98.06212 | 22054 ft | 292 kts | 288° |
| 2026-04-13 22:11 | 29.97931 | -98.08373 | 22051 ft | 292 kts | 288° |
| 2026-04-13 22:11 | 29.98721 | -98.10531 | 22051 ft | 292 kts | 288° |
| 2026-04-13 22:12 | 29.99511 | -98.12692 | 22051 ft | 292 kts | 288° |
| 2026-04-13 22:12 | 30.00299 | -98.14851 | 22050 ft | 292 kts | 288° |
| 2026-04-13 22:12 | 30.01090 | -98.17015 | 22049 ft | 292 kts | 288° |
| 2026-04-13 22:12 | 30.01868 | -98.19149 | 22044 ft | 292 kts | 288° |
| 2026-04-13 22:13 | 30.02659 | -98.21316 | 22045 ft | 292 kts | 288° |
| 2026-04-13 22:13 | 30.03446 | -98.23475 | 22038 ft | 292 kts | 288° |
| 2026-04-13 22:13 | 30.04233 | -98.25637 | 22040 ft | 291 kts | 288° |
| 2026-04-13 22:13 | 30.05017 | -98.27791 | 22038 ft | 291 kts | 287° |
| 2026-04-13 22:14 | 30.05788 | -98.29916 | 22041 ft | 291 kts | 287° |
| 2026-04-13 22:14 | 30.06571 | -98.32068 | 22046 ft | 291 kts | 287° |
| 2026-04-13 22:14 | 30.07353 | -98.34224 | 22043 ft | 290 kts | 287° |
| 2026-04-13 22:14 | 30.08132 | -98.36373 | 22043 ft | 290 kts | 287° |
| 2026-04-13 22:15 | 30.08913 | -98.38526 | 22042 ft | 290 kts | 287° |
| 2026-04-13 22:15 | 30.09694 | -98.40678 | 22041 ft | 290 kts | 287° |
| 2026-04-13 22:15 | 30.10473 | -98.42830 | 22041 ft | 290 kts | 287° |
| 2026-04-13 22:15 | 30.11253 | -98.44984 | 22036 ft | 290 kts | 287° |
| 2026-04-13 22:16 | 30.12035 | -98.47142 | 22038 ft | 291 kts | 287° |
| 2026-04-13 22:16 | 30.12817 | -98.49298 | 22036 ft | 290 kts | 287° |
| 2026-04-13 22:16 | 30.13595 | -98.51450 | 22035 ft | 290 kts | 287° |
| 2026-04-13 22:16 | 30.14364 | -98.53580 | 22036 ft | 290 kts | 287° |
| 2026-04-13 22:17 | 30.14891 | -98.55041 | 22037 ft | 291 kts | 287° |
| 2026-04-13 22:17 | 30.15923 | -98.57906 | 22034 ft | 291 kts | 287° |
| 2026-04-13 22:17 | 30.16699 | -98.60060 | 22030 ft | 291 kts | 287° |
| 2026-04-13 22:17 | 30.17476 | -98.62218 | 22037 ft | 291 kts | 287° |
| 2026-04-13 22:18 | 30.18252 | -98.64375 | 22035 ft | 291 kts | 287° |
| 2026-04-13 22:18 | 30.19029 | -98.66534 | 22035 ft | 290 kts | 287° |
| 2026-04-13 22:18 | 30.19796 | -98.68665 | 22025 ft | 291 kts | 287° |
| 2026-04-13 22:18 | 30.20313 | -98.70103 | 22035 ft | 290 kts | 287° |
| 2026-04-13 22:19 | 30.21350 | -98.72991 | 22025 ft | 290 kts | 287° |
| 2026-04-13 22:19 | 30.21864 | -98.74422 | 22027 ft | 290 kts | 287° |
| 2026-04-13 22:19 | 30.22638 | -98.76581 | 22026 ft | 290 kts | 287° |
| 2026-04-13 22:19 | 30.23666 | -98.79446 | 22022 ft | 290 kts | 286° |
| 2026-04-13 22:20 | 30.24187 | -98.80900 | 22022 ft | 290 kts | 287° |
| 2026-04-13 22:20 | 30.25210 | -98.83762 | 22029 ft | 290 kts | 286° |
| 2026-04-13 22:20 | 30.25982 | -98.85922 | 22029 ft | 290 kts | 286° |
| 2026-04-13 22:20 | 30.26755 | -98.88082 | 22025 ft | 290 kts | 286° |
| 2026-04-13 22:21 | 30.27526 | -98.90238 | 22020 ft | 290 kts | 286° |
| 2026-04-13 22:21 | 30.28298 | -98.92397 | 22031 ft | 290 kts | 286° |
| 2026-04-13 22:21 | 30.29070 | -98.94555 | 22035 ft | 290 kts | 286° |
| 2026-04-13 22:21 | 30.29842 | -98.96717 | 22018 ft | 290 kts | 286° |
| 2026-04-13 22:22 | 30.30611 | -98.98876 | 22026 ft | 290 kts | 286° |
| 2026-04-13 22:22 | 30.31381 | -99.01037 | 22028 ft | 290 kts | 286° |
| 2026-04-13 22:22 | 30.32140 | -99.03172 | 22022 ft | 290 kts | 286° |
| 2026-04-13 22:22 | 30.32910 | -99.05334 | 22021 ft | 290 kts | 286° |
| 2026-04-13 22:23 | 30.33680 | -99.07499 | 22012 ft | 290 kts | 286° |
| 2026-04-13 22:23 | 30.34451 | -99.09667 | 22014 ft | 290 kts | 286° |
| 2026-04-13 22:23 | 30.35220 | -99.11831 | 22013 ft | 290 kts | 286° |
| 2026-04-13 22:23 | 30.35989 | -99.13997 | 22015 ft | 290 kts | 286° |
| 2026-04-13 22:24 | 30.36757 | -99.16161 | 22001 ft | 290 kts | 286° |
| 2026-04-13 22:24 | 30.37524 | -99.18325 | 22021 ft | 290 kts | 286° |
| 2026-04-13 22:24 | 30.38280 | -99.20461 | 22005 ft | 290 kts | 286° |
| 2026-04-13 22:24 | 30.39056 | -99.22652 | 22001 ft | 290 kts | 286° |
| 2026-04-13 22:25 | 30.39816 | -99.24791 | 22001 ft | 290 kts | 286° |
| 2026-04-13 22:25 | 30.40582 | -99.26953 | 22003 ft | 290 kts | 286° |
| 2026-04-13 22:25 | 30.41347 | -99.29121 | 22007 ft | 291 kts | 286° |
| 2026-04-13 22:25 | 30.42111 | -99.31291 | 21998 ft | 291 kts | 286° |
| 2026-04-13 22:26 | 30.42877 | -99.33466 | 22001 ft | 291 kts | 286° |
| 2026-04-13 22:26 | 30.43643 | -99.35639 | 22000 ft | 292 kts | 286° |
| 2026-04-13 22:26 | 30.44411 | -99.37818 | 22001 ft | 292 kts | 286° |
| 2026-04-13 22:26 | 30.45178 | -99.39991 | 22002 ft | 291 kts | 286° |
| 2026-04-13 22:27 | 30.45944 | -99.42166 | 22013 ft | 291 kts | 286° |
| 2026-04-13 22:27 | 30.46699 | -99.44312 | 22017 ft | 291 kts | 286° |
| 2026-04-13 22:27 | 30.47464 | -99.46486 | 22022 ft | 291 kts | 286° |
| 2026-04-13 22:27 | 30.48230 | -99.48666 | 22028 ft | 291 kts | 286° |
| 2026-04-13 22:28 | 30.48993 | -99.50839 | 22034 ft | 291 kts | 286° |
| 2026-04-13 22:28 | 30.49757 | -99.53015 | 22038 ft | 291 kts | 286° |
| 2026-04-13 22:28 | 30.50520 | -99.55192 | 22042 ft | 291 kts | 286° |
| 2026-04-13 22:28 | 30.51284 | -99.57369 | 22046 ft | 291 kts | 286° |
| 2026-04-13 22:29 | 30.52045 | -99.59539 | 22050 ft | 290 kts | 286° |
| 2026-04-13 22:29 | 30.52794 | -99.61679 | 22066 ft | 289 kts | 286° |
| 2026-04-13 22:29 | 30.53552 | -99.63849 | 22067 ft | 289 kts | 286° |
| 2026-04-13 22:29 | 30.54308 | -99.66011 | 22075 ft | 290 kts | 286° |
| 2026-04-13 22:30 | 30.55067 | -99.68182 | 22078 ft | 290 kts | 286° |
| 2026-04-13 22:30 | 30.55825 | -99.70353 | 22079 ft | 290 kts | 286° |
| 2026-04-13 22:30 | 30.56584 | -99.72527 | 22076 ft | 291 kts | 286° |
| 2026-04-13 22:30 | 30.57342 | -99.74700 | 22074 ft | 291 kts | 286° |
| 2026-04-13 22:31 | 30.57845 | -99.76143 | 22070 ft | 291 kts | 286° |
| 2026-04-13 22:31 | 30.58604 | -99.78325 | 22074 ft | 290 kts | 286° |
| 2026-04-13 22:31 | 30.59607 | -99.81206 | 22073 ft | 290 kts | 286° |
| 2026-04-13 22:31 | 30.60375 | -99.83375 | 22070 ft | 291 kts | 287° |
| 2026-04-13 22:32 | 30.61201 | -99.85523 | 22064 ft | 292 kts | 288° |
| 2026-04-13 22:32 | 30.62050 | -99.87662 | 22059 ft | 292 kts | 289° |
| 2026-04-13 22:32 | 30.62615 | -99.89078 | 22050 ft | 292 kts | 289° |
| 2026-04-13 22:32 | 30.63754 | -99.91943 | 22049 ft | 291 kts | 289° |
| 2026-04-13 22:33 | 30.64600 | -99.94085 | 22034 ft | 291 kts | 288° |
| 2026-04-13 22:33 | 30.65430 | -99.96196 | 22031 ft | 291 kts | 288° |
| 2026-04-13 22:33 | 30.66267 | -99.98336 | 22024 ft | 291 kts | 288° |
| 2026-04-13 22:34 | 30.68770 | -100.04757 | 22003 ft | 290 kts | 288° |
| 2026-04-13 22:34 | 30.69592 | -100.06864 | 22002 ft | 290 kts | 288° |
| 2026-04-13 22:34 | 30.70422 | -100.09000 | 21996 ft | 290 kts | 288° |
| 2026-04-13 22:35 | 30.70982 | -100.10445 | 21990 ft | 290 kts | 288° |
| 2026-04-13 22:35 | 30.72078 | -100.13275 | 21992 ft | 289 kts | 288° |
| 2026-04-13 22:35 | 30.72624 | -100.14688 | 21993 ft | 289 kts | 288° |
| 2026-04-13 22:35 | 30.73451 | -100.16822 | 21992 ft | 289 kts | 289° |
| 2026-04-13 22:36 | 30.74278 | -100.18955 | 21994 ft | 289 kts | 288° |
| 2026-04-13 22:36 | 30.75101 | -100.21084 | 21990 ft | 289 kts | 288° |
| 2026-04-13 22:36 | 30.75923 | -100.23215 | 21994 ft | 289 kts | 288° |
| 2026-04-13 22:36 | 30.76750 | -100.25352 | 22000 ft | 289 kts | 289° |
| 2026-04-13 22:37 | 30.77574 | -100.27487 | 21999 ft | 289 kts | 288° |
| 2026-04-13 22:37 | 30.78396 | -100.29625 | 21997 ft | 289 kts | 288° |
| 2026-04-13 22:37 | 30.79222 | -100.31762 | 21998 ft | 290 kts | 289° |
| 2026-04-13 22:37 | 30.80057 | -100.33898 | 22007 ft | 290 kts | 290° |
| 2026-04-13 22:38 | 30.81115 | -100.35923 | 22013 ft | 295 kts | 298° |
| 2026-04-13 22:38 | 30.82243 | -100.37917 | 22015 ft | 294 kts | 296° |
| 2026-04-13 22:38 | 30.83321 | -100.39933 | 22017 ft | 294 kts | 296° |
| 2026-04-13 22:38 | 30.84378 | -100.41933 | 22018 ft | 294 kts | 295° |
| 2026-04-13 22:39 | 30.85463 | -100.43982 | 22018 ft | 294 kts | 296° |
| 2026-04-13 22:39 | 30.86525 | -100.45978 | 22020 ft | 294 kts | 296° |
| 2026-04-13 22:39 | 30.87605 | -100.47999 | 22018 ft | 294 kts | 296° |
| 2026-04-13 22:39 | 30.88688 | -100.50021 | 22017 ft | 294 kts | 296° |
| 2026-04-13 22:40 | 30.89773 | -100.52045 | 22017 ft | 294 kts | 296° |
| 2026-04-13 22:40 | 30.90860 | -100.54067 | 22015 ft | 294 kts | 296° |
| 2026-04-13 22:40 | 30.91943 | -100.56084 | 22017 ft | 294 kts | 296° |
| 2026-04-13 22:40 | 30.93031 | -100.58107 | 22016 ft | 294 kts | 296° |
| 2026-04-13 22:41 | 30.94115 | -100.60126 | 22013 ft | 294 kts | 296° |
| 2026-04-13 22:41 | 30.95187 | -100.62124 | 22012 ft | 294 kts | 296° |
| 2026-04-13 22:41 | 30.96274 | -100.64148 | 22012 ft | 294 kts | 296° |
| 2026-04-13 22:41 | 30.97357 | -100.66168 | 22011 ft | 294 kts | 296° |
| 2026-04-13 22:42 | 30.98442 | -100.68192 | 22009 ft | 294 kts | 296° |
| 2026-04-13 22:42 | 30.99524 | -100.70213 | 22011 ft | 294 kts | 296° |
| 2026-04-13 22:42 | 31.00608 | -100.72236 | 22010 ft | 294 kts | 296° |
| 2026-04-13 22:42 | 31.01691 | -100.74261 | 22009 ft | 294 kts | 296° |
| 2026-04-13 22:43 | 31.02775 | -100.76287 | 22006 ft | 294 kts | 296° |
| 2026-04-13 22:43 | 31.03859 | -100.78315 | 22009 ft | 294 kts | 296° |
| 2026-04-13 22:43 | 31.04943 | -100.80344 | 22003 ft | 294 kts | 296° |
| 2026-04-13 22:43 | 31.06026 | -100.82372 | 22001 ft | 294 kts | 296° |
| 2026-04-13 22:44 | 31.07097 | -100.84379 | 22003 ft | 294 kts | 296° |
| 2026-04-13 22:44 | 31.08180 | -100.86409 | 22005 ft | 294 kts | 296° |
| 2026-04-13 22:44 | 31.09263 | -100.88441 | 22004 ft | 294 kts | 296° |
| 2026-04-13 22:44 | 31.10349 | -100.90479 | 22003 ft | 295 kts | 296° |
| 2026-04-13 22:45 | 31.11420 | -100.92490 | 22001 ft | 295 kts | 296° |
| 2026-04-13 22:45 | 31.12505 | -100.94527 | 21998 ft | 295 kts | 296° |
| 2026-04-13 22:45 | 31.13590 | -100.96564 | 22002 ft | 295 kts | 296° |
| 2026-04-13 22:45 | 31.14673 | -100.98602 | 21997 ft | 295 kts | 296° |
| 2026-04-13 22:46 | 31.15757 | -101.00640 | 21997 ft | 295 kts | 296° |
| 2026-04-13 22:46 | 31.16838 | -101.02677 | 21996 ft | 295 kts | 297° |
| 2026-04-13 22:46 | 31.17923 | -101.04721 | 21991 ft | 295 kts | 297° |
| 2026-04-13 22:46 | 31.19003 | -101.06756 | 21992 ft | 295 kts | 297° |
| 2026-04-13 22:47 | 31.20070 | -101.08768 | 21994 ft | 295 kts | 297° |
| 2026-04-13 22:47 | 31.21154 | -101.10811 | 21992 ft | 295 kts | 297° |
| 2026-04-13 22:47 | 31.22236 | -101.12852 | 21989 ft | 295 kts | 297° |
| 2026-04-13 22:47 | 31.23316 | -101.14892 | 21990 ft | 295 kts | 297° |
| 2026-04-13 22:48 | 31.24397 | -101.16933 | 21991 ft | 296 kts | 297° |
| 2026-04-13 22:48 | 31.25479 | -101.18979 | 21986 ft | 296 kts | 297° |
| 2026-04-13 22:48 | 31.26562 | -101.21029 | 21988 ft | 296 kts | 297° |
| 2026-04-13 22:48 | 31.27642 | -101.23074 | 21986 ft | 296 kts | 297° |
| 2026-04-13 22:49 | 31.28726 | -101.25124 | 21983 ft | 296 kts | 297° |
| 2026-04-13 22:49 | 31.29810 | -101.27178 | 21981 ft | 296 kts | 297° |
| 2026-04-13 22:49 | 31.30888 | -101.29221 | 21987 ft | 296 kts | 297° |
| 2026-04-13 22:49 | 31.31956 | -101.31246 | 21908 ft | 295 kts | 295° |
| 2026-04-13 22:50 | 31.33031 | -101.33279 | 21948 ft | 293 kts | 295° |
| 2026-04-13 22:50 | 31.34096 | -101.35298 | 21966 ft | 291 kts | 295° |
| 2026-04-13 22:50 | 31.35157 | -101.37316 | 21970 ft | 291 kts | 295° |
| 2026-04-13 22:50 | 31.36215 | -101.39330 | 21968 ft | 290 kts | 295° |
| 2026-04-13 22:51 | 31.37270 | -101.41338 | 21967 ft | 290 kts | 295° |
| 2026-04-13 22:51 | 31.38327 | -101.43351 | 21967 ft | 289 kts | 295° |
| 2026-04-13 22:51 | 31.39380 | -101.45354 | 21970 ft | 289 kts | 295° |
| 2026-04-13 22:51 | 31.40434 | -101.47362 | 21963 ft | 289 kts | 295° |
| 2026-04-13 22:52 | 31.41473 | -101.49342 | 21963 ft | 289 kts | 295° |
| 2026-04-13 22:52 | 31.42525 | -101.51348 | 21964 ft | 289 kts | 295° |
| 2026-04-13 22:52 | 31.43577 | -101.53355 | 21961 ft | 289 kts | 295° |
| 2026-04-13 22:52 | 31.44627 | -101.55359 | 21958 ft | 288 kts | 295° |
| 2026-04-13 22:53 | 31.45680 | -101.57370 | 21904 ft | 290 kts | 295° |
| 2026-04-13 22:53 | 31.46747 | -101.59408 | 21635 ft | 298 kts | 295° |
| 2026-04-13 22:53 | 31.47859 | -101.61518 | 21181 ft | 309 kts | 295° |
| 2026-04-13 22:53 | 31.49003 | -101.63662 | 20742 ft | 318 kts | 296° |
| 2026-04-13 22:54 | 31.50190 | -101.65865 | 20312 ft | 321 kts | 296° |
| 2026-04-13 22:54 | 31.51368 | -101.68087 | 19880 ft | 321 kts | 295° |
| 2026-04-13 22:54 | 31.52527 | -101.70321 | 19450 ft | 320 kts | 295° |
| 2026-04-13 22:54 | 31.53676 | -101.72553 | 19033 ft | 320 kts | 295° |
| 2026-04-13 22:55 | 31.54828 | -101.74793 | 18621 ft | 321 kts | 295° |
| 2026-04-13 22:55 | 31.55979 | -101.77022 | 18205 ft | 317 kts | 295° |
| 2026-04-13 22:55 | 31.57121 | -101.79226 | 17738 ft | 313 kts | 295° |
| 2026-04-13 22:55 | 31.58250 | -101.81402 | 17265 ft | 311 kts | 295° |
| 2026-04-13 22:56 | 31.59370 | -101.83562 | 16804 ft | 309 kts | 295° |
| 2026-04-13 22:56 | 31.60486 | -101.85711 | 16353 ft | 307 kts | 295° |
| 2026-04-13 22:56 | 31.61595 | -101.87850 | 15904 ft | 306 kts | 295° |
| 2026-04-13 22:56 | 31.62689 | -101.89959 | 15466 ft | 305 kts | 295° |
| 2026-04-13 22:57 | 31.63785 | -101.92072 | 15033 ft | 299 kts | 295° |
| 2026-04-13 22:57 | 31.64860 | -101.94145 | 14602 ft | 294 kts | 295° |
| 2026-04-13 22:57 | 31.65918 | -101.96190 | 14181 ft | 291 kts | 295° |
| 2026-04-13 22:57 | 31.66964 | -101.98212 | 13770 ft | 289 kts | 295° |
| 2026-04-13 22:58 | 31.68000 | -102.00227 | 13314 ft | 287 kts | 295° |
| 2026-04-13 22:58 | 31.69024 | -102.02208 | 12870 ft | 286 kts | 296° |
| 2026-04-13 22:58 | 31.70059 | -102.04198 | 12418 ft | 285 kts | 296° |
| 2026-04-13 22:58 | 31.71086 | -102.06184 | 11981 ft | 284 kts | 296° |
| 2026-04-13 22:59 | 31.72112 | -102.08165 | 11543 ft | 283 kts | 297° |
| 2026-04-13 22:59 | 31.73134 | -102.10145 | 11111 ft | 282 kts | 297° |
| 2026-04-13 22:59 | 31.74152 | -102.12121 | 10683 ft | 282 kts | 297° |
| 2026-04-13 22:59 | 31.75165 | -102.14084 | 10270 ft | 281 kts | 298° |
| 2026-04-13 23:00 | 31.76173 | -102.16040 | 9852 ft | 280 kts | 298° |
| 2026-04-13 23:00 | 31.77170 | -102.17969 | 9396 ft | 279 kts | 298° |
| 2026-04-13 23:00 | 31.78169 | -102.19907 | 8940 ft | 272 kts | 298° |
| 2026-04-13 23:00 | 31.79113 | -102.21779 | 8497 ft | 260 kts | 297° |
| 2026-04-13 23:01 | 31.80012 | -102.23582 | 8073 ft | 251 kts | 297° |
| 2026-04-13 23:01 | 31.80896 | -102.25317 | 7724 ft | 243 kts | 298° |
| 2026-04-13 23:01 | 31.81762 | -102.26992 | 7375 ft | 237 kts | 297° |
| 2026-04-13 23:01 | 31.82614 | -102.28630 | 7039 ft | 232 kts | 297° |
| 2026-04-13 23:02 | 31.83436 | -102.30208 | 6695 ft | 227 kts | 297° |
| 2026-04-13 23:02 | 31.84252 | -102.31790 | 6351 ft | 223 kts | 297° |
| 2026-04-13 23:02 | 31.85104 | -102.33304 | 5982 ft | 223 kts | 308° |
| 2026-04-13 23:02 | 31.86358 | -102.34390 | 5602 ft | 225 kts | 326° |
| 2026-04-13 23:03 | 31.87749 | -102.35219 | 5251 ft | 225 kts | 337° |
| 2026-04-13 23:03 | 31.89277 | -102.35605 | 4883 ft | 227 kts | 1° |
| 2026-04-13 23:03 | 31.90767 | -102.35087 | 4684 ft | 220 kts | 24° |
| 2026-04-13 23:03 | 31.92111 | -102.34357 | 4586 ft | 204 kts | 26° |
| 2026-04-13 23:04 | 31.93317 | -102.33654 | 4554 ft | 182 kts | 26° |
| 2026-04-13 23:04 | 31.94406 | -102.32993 | 4485 ft | 174 kts | 25° |
| 2026-04-13 23:04 | 31.95465 | -102.32359 | 4419 ft | 169 kts | 18° |
| 2026-04-13 23:04 | 31.96508 | -102.32454 | 4381 ft | 142 kts | 316° |
| 2026-04-13 23:05 | 31.96946 | -102.33365 | 4289 ft | 122 kts | 266° |
| 2026-04-13 23:05 | 31.96728 | -102.34276 | 4145 ft | 117 kts | 239° |
| 2026-04-13 23:05 | 31.96332 | -102.35127 | 4036 ft | 119 kts | 240° |
| 2026-04-13 23:05 | 31.95894 | -102.35961 | 3879 ft | 121 kts | 231° |
| 2026-04-13 23:06 | 31.95273 | -102.36634 | 3698 ft | 124 kts | 214° |
| 2026-04-13 23:06 | 31.94537 | -102.37158 | 3482 ft | 121 kts | 212° |
| 2026-04-13 23:06 | 31.93802 | -102.37659 | 3320 ft | 123 kts | 209° |
| 2026-04-13 23:06 | 31.93069 | -102.38163 | 3122 ft | 118 kts | 212° |
| 2026-04-13 23:07 | 31.92421 | -102.38593 | 2987 ft | 95 kts | 212° |
| 2026-04-13 23:07 | 31.91951 | -102.38906 | 2981 ft | 53 kts | 210° |
| 2026-04-13 23:07 | 31.91815 | -102.38995 | 2976 ft | 11 kts | 208° |
| 2026-04-13 23:07 | 31.91787 | -102.39033 | 2975 ft | 8 kts | 285° |
| 2026-04-13 23:08 | 31.91813 | -102.39087 | 2976 ft | 8 kts | 301° |
| 2026-04-13 23:08 | 31.91829 | -102.39119 | 2976 ft | 1 kts | 301° |
| 2026-04-13 23:08 | 31.91831 | -102.39123 | 2976 ft | 1 kts | 302° |
| 2026-04-13 23:08 | 31.91839 | -102.39137 | 2975 ft | 1 kts | 300° |
| 2026-04-13 23:09 | 31.91840 | -102.39140 | 2975 ft | 0 kts | 300° |
| 2026-04-13 23:09 | 31.91862 | -102.39153 | 2975 ft | 7 kts | 2° |
| 2026-04-13 23:09 | 31.91897 | -102.39177 | 2975 ft | 2 kts | 229° |
| 2026-04-13 23:09 | 31.91893 | -102.39181 | 2975 ft | 0 kts | 207° |